createdAt,value
2017-02-08T00:00:12.660Z,1044.71
2017-02-08T00:01:12.645Z,1044.72
2017-02-08T00:02:12.627Z,1044.75
2017-02-08T00:03:12.611Z,1044.84
2017-02-08T00:04:12.595Z,1044.9
2017-02-08T00:05:12.578Z,1044.83
2017-02-08T00:06:12.562Z,1044.83
2017-02-08T00:07:12.546Z,1044.91
2017-02-08T00:08:12.530Z,1044.81
2017-02-08T00:09:12.512Z,1044.84
2017-02-08T00:10:12.496Z,1044.86
2017-02-08T00:11:12.480Z,1044.89
2017-02-08T00:12:12.465Z,1044.9
2017-02-08T00:13:12.447Z,1044.97
2017-02-08T00:14:12.431Z,1045
2017-02-08T00:15:12.415Z,1044.91
2017-02-08T00:16:12.398Z,1044.94
2017-02-08T00:17:12.382Z,1045.01
2017-02-08T00:18:12.365Z,1044.96
2017-02-08T00:19:12.348Z,1045.02
2017-02-08T00:20:12.332Z,1044.99
2017-02-08T00:21:12.316Z,1044.97
2017-02-08T00:22:12.299Z,1044.93
2017-02-08T00:23:12.285Z,1044.98
2017-02-08T00:24:12.269Z,1044.96
2017-02-08T00:25:12.253Z,1044.99
2017-02-08T00:26:12.234Z,1044.98
2017-02-08T00:27:12.217Z,1044.98
2017-02-08T00:28:12.203Z,1044.94
2017-02-08T00:29:12.184Z,1044.9
2017-02-08T00:30:12.168Z,1044.91
2017-02-08T00:31:12.155Z,1044.84
2017-02-08T00:32:12.134Z,1044.87
2017-02-08T00:33:12.118Z,1044.94
2017-02-08T00:34:12.102Z,1044.98
2017-02-08T00:35:12.084Z,1044.96
2017-02-08T00:36:12.069Z,1044.97
2017-02-08T00:37:12.053Z,1045.01
2017-02-08T00:38:12.037Z,1044.94
2017-02-08T00:39:12.020Z,1044.99
2017-02-08T00:40:12.004Z,1044.96
2017-02-08T00:41:11.987Z,1044.96
2017-02-08T00:42:11.970Z,1044.95
2017-02-08T00:43:11.954Z,1045.01
2017-02-08T00:44:11.938Z,1045.15
2017-02-08T00:45:11.921Z,1045.1
2017-02-08T00:46:11.905Z,1045.13
2017-02-08T00:47:11.888Z,1045.09
2017-02-08T00:48:11.872Z,1045.1
2017-02-08T00:49:11.855Z,1045.18
2017-02-08T00:50:11.842Z,1045.22
2017-02-08T00:51:11.823Z,1045.21
2017-02-08T00:52:11.807Z,1045.21
2017-02-08T00:53:11.790Z,1045.2
2017-02-08T00:54:11.773Z,1045.21
2017-02-08T00:55:11.758Z,1045.24
2017-02-08T00:56:11.742Z,1045.22
2017-02-08T00:57:11.724Z,1045.27
2017-02-08T00:58:11.708Z,1045.24
2017-02-08T00:59:11.693Z,1045.28
2017-02-08T01:00:11.675Z,1045.27
2017-02-08T01:01:11.659Z,1045.35
2017-02-08T01:02:11.642Z,1045.36
2017-02-08T01:03:11.626Z,1045.33
2017-02-08T01:04:11.609Z,1045.34
2017-02-08T01:05:11.593Z,1045.36
2017-02-08T01:06:11.577Z,1045.4
2017-02-08T01:07:11.560Z,1045.41
2017-02-08T01:08:11.543Z,1045.43
2017-02-08T01:09:11.527Z,1045.49
2017-02-08T01:10:11.511Z,1045.53
2017-02-08T01:11:11.494Z,1045.58
2017-02-08T01:12:11.478Z,1045.59
2017-02-08T01:13:11.461Z,1045.61
2017-02-08T01:14:11.445Z,1045.58
2017-02-08T01:15:11.427Z,1045.56
2017-02-08T01:16:11.411Z,1045.59
2017-02-08T01:17:11.395Z,1045.56
2017-02-08T01:18:11.379Z,1045.65
2017-02-08T01:19:11.362Z,1045.63
2017-02-08T01:20:11.345Z,1045.56
2017-02-08T01:21:11.328Z,1045.6
2017-02-08T01:22:11.312Z,1045.61
2017-02-08T01:23:11.295Z,1045.6
2017-02-08T01:24:11.278Z,1045.59
2017-02-08T01:25:11.262Z,1045.59
2017-02-08T01:26:11.244Z,1045.65
2017-02-08T01:27:11.229Z,1045.65
2017-02-08T01:28:11.212Z,1045.62
2017-02-08T01:29:11.197Z,1045.62
2017-02-08T01:30:11.178Z,1045.66
2017-02-08T01:31:11.162Z,1045.6
2017-02-08T01:32:11.145Z,1045.63
2017-02-08T01:33:11.128Z,1045.63
2017-02-08T01:34:11.112Z,1045.65
2017-02-08T01:35:11.094Z,1045.64
2017-02-08T01:36:11.078Z,1045.71
2017-02-08T01:37:11.061Z,1045.72
2017-02-08T01:38:11.044Z,1045.68
2017-02-08T01:39:11.028Z,1045.73
2017-02-08T01:40:11.011Z,1045.71
2017-02-08T01:41:10.994Z,1045.73
2017-02-08T01:42:10.978Z,1045.75
2017-02-08T01:43:10.961Z,1045.86
2017-02-08T01:44:10.944Z,1045.8
2017-02-08T01:45:10.927Z,1045.77
2017-02-08T01:46:10.911Z,1045.78
2017-02-08T01:47:10.896Z,1045.78
2017-02-08T01:48:10.877Z,1045.82
2017-02-08T01:49:10.860Z,1045.74
2017-02-08T01:50:10.843Z,1045.76
2017-02-08T01:51:10.828Z,1045.74
2017-02-08T01:52:10.810Z,1045.72
2017-02-08T01:53:10.794Z,1045.74
2017-02-08T01:54:10.777Z,1045.76
2017-02-08T01:55:10.759Z,1045.78
2017-02-08T01:56:10.742Z,1045.76
2017-02-08T01:57:10.726Z,1045.69
2017-02-08T01:58:10.710Z,1045.71
2017-02-08T01:59:10.693Z,1045.8
2017-02-08T02:00:10.675Z,1045.73
2017-02-08T02:01:10.659Z,1045.75
2017-02-08T02:02:10.641Z,1045.76
2017-02-08T02:03:10.627Z,1045.76
2017-02-08T02:04:10.608Z,1045.79
2017-02-08T02:05:10.591Z,1045.8
2017-02-08T02:06:10.573Z,1045.81
2017-02-08T02:07:10.557Z,1045.8
2017-02-08T02:08:10.540Z,1045.76
2017-02-08T02:09:10.524Z,1045.83
2017-02-08T02:10:10.509Z,1045.76
2017-02-08T02:11:10.493Z,1045.83
2017-02-08T02:12:10.473Z,1045.82
2017-02-08T02:13:10.459Z,1045.84
2017-02-08T02:14:10.439Z,1045.92
2017-02-08T02:15:10.421Z,1045.83
2017-02-08T02:16:10.405Z,1045.81
2017-02-08T02:17:10.387Z,1045.78
2017-02-08T02:18:10.371Z,1045.76
2017-02-08T02:19:10.355Z,1045.88
2017-02-08T02:20:10.338Z,1045.76
2017-02-08T02:21:10.321Z,1045.77
2017-02-08T02:22:10.304Z,1045.82
2017-02-08T02:23:10.287Z,1045.96
2017-02-08T02:24:10.269Z,1045.88
2017-02-08T02:25:10.252Z,1045.82
2017-02-08T02:26:10.238Z,1045.89
2017-02-08T02:27:10.219Z,1045.86
2017-02-08T02:28:10.202Z,1045.96
2017-02-08T02:29:10.185Z,1045.9
2017-02-08T02:30:10.169Z,1046.03
2017-02-08T02:31:10.152Z,1045.94
2017-02-08T02:32:10.136Z,1045.97
2017-02-08T02:33:10.119Z,1046.01
2017-02-08T02:34:10.101Z,1046.06
2017-02-08T02:35:10.083Z,1046.02
2017-02-08T02:36:10.066Z,1045.97
2017-02-08T02:37:10.049Z,1045.96
2017-02-08T02:38:10.033Z,1045.95
2017-02-08T02:39:10.015Z,1045.9
2017-02-08T02:40:09.999Z,1045.91
2017-02-08T02:41:09.983Z,1045.96
2017-02-08T02:42:09.968Z,1045.94
2017-02-08T02:43:09.948Z,1045.98
2017-02-08T02:44:09.930Z,1046
2017-02-08T02:45:09.914Z,1046
2017-02-08T02:46:09.897Z,1046.05
2017-02-08T02:47:09.880Z,1046.12
2017-02-08T02:48:09.862Z,1046.06
2017-02-08T02:49:09.847Z,1046.09
2017-02-08T02:50:09.832Z,1046.02
2017-02-08T02:51:09.811Z,1046.03
2017-02-08T02:52:09.794Z,1046.08
2017-02-08T02:53:09.777Z,1046.06
2017-02-08T02:54:09.759Z,1046.07
2017-02-08T02:55:09.744Z,1046.04
2017-02-08T02:56:09.726Z,1046.07
2017-02-08T02:57:09.709Z,1046.05
2017-02-08T02:58:09.692Z,1046.04
2017-02-08T02:59:09.675Z,1046.08
2017-02-08T03:00:09.658Z,1046.09
2017-02-08T03:01:09.642Z,1046.03
2017-02-08T03:02:09.625Z,1046.13
2017-02-08T03:03:09.608Z,1046.21
2017-02-08T03:04:09.591Z,1046.14
2017-02-08T03:05:09.572Z,1046.22
2017-02-08T03:06:09.559Z,1046.2
2017-02-08T03:07:09.539Z,1046.24
2017-02-08T03:08:09.521Z,1046.26
2017-02-08T03:09:09.505Z,1046.23
2017-02-08T03:10:09.488Z,1046.28
2017-02-08T03:11:09.472Z,1046.35
2017-02-08T03:12:09.452Z,1046.38
2017-02-08T03:13:09.437Z,1046.36
2017-02-08T03:14:09.420Z,1046.39
2017-02-08T03:15:09.402Z,1046.35
2017-02-08T03:16:09.386Z,1046.35
2017-02-08T03:17:09.368Z,1046.36
2017-02-08T03:18:09.352Z,1046.34
2017-02-08T03:19:09.334Z,1046.29
2017-02-08T03:20:09.317Z,1046.24
2017-02-08T03:21:09.300Z,1046.24
2017-02-08T03:22:09.283Z,1046.2
2017-02-08T03:23:09.265Z,1046.18
2017-02-08T03:24:09.248Z,1046.21
2017-02-08T03:25:09.231Z,1046.19
2017-02-08T03:26:09.214Z,1046.15
2017-02-08T03:27:09.196Z,1046.1
2017-02-08T03:28:09.180Z,1046.1
2017-02-08T03:29:09.163Z,1046.2
2017-02-08T03:30:09.146Z,1046.12
2017-02-08T03:31:09.130Z,1046.14
2017-02-08T03:32:09.111Z,1046.16
2017-02-08T03:33:09.094Z,1046.2
2017-02-08T03:34:09.077Z,1046.2
2017-02-08T03:35:09.060Z,1046.24
2017-02-08T03:36:09.044Z,1046.26
2017-02-08T03:37:09.026Z,1046.24
2017-02-08T03:38:09.008Z,1046.27
2017-02-08T03:39:08.991Z,1046.31
2017-02-08T03:40:08.974Z,1046.3
2017-02-08T03:41:08.957Z,1046.3
2017-02-08T03:42:08.940Z,1046.41
2017-02-08T03:43:08.925Z,1046.38
2017-02-08T03:44:08.907Z,1046.44
2017-02-08T03:45:08.889Z,1046.47
2017-02-08T03:46:08.872Z,1046.51
2017-02-08T03:47:08.855Z,1046.51
2017-02-08T03:48:08.839Z,1046.55
2017-02-08T03:49:08.821Z,1046.57
2017-02-08T03:50:08.805Z,1046.67
2017-02-08T03:51:08.788Z,1046.73
2017-02-08T03:52:08.770Z,1046.63
2017-02-08T03:53:08.753Z,1046.7
2017-02-08T03:54:08.737Z,1046.69
2017-02-08T03:55:08.719Z,1046.8
2017-02-08T03:56:08.701Z,1046.74
2017-02-08T03:57:08.685Z,1046.78
2017-02-08T03:58:08.668Z,1046.76
2017-02-08T03:59:08.652Z,1046.79
2017-02-08T04:00:08.634Z,1046.69
2017-02-08T04:01:08.617Z,1046.69
2017-02-08T04:02:08.600Z,1046.77
2017-02-08T04:03:08.582Z,1046.71
2017-02-08T04:04:08.566Z,1046.75
2017-02-08T04:05:08.548Z,1046.74
2017-02-08T04:06:08.531Z,1046.71
2017-02-08T04:07:08.513Z,1046.7
2017-02-08T04:08:08.497Z,1046.71
2017-02-08T04:09:08.479Z,1046.78
2017-02-08T04:10:08.462Z,1046.82
2017-02-08T04:11:08.445Z,1046.86
2017-02-08T04:12:08.428Z,1046.82
2017-02-08T04:13:08.412Z,1046.91
2017-02-08T04:14:08.393Z,1046.97
2017-02-08T04:15:08.376Z,1046.92
2017-02-08T04:16:08.359Z,1046.95
2017-02-08T04:17:08.343Z,1046.92
2017-02-08T04:18:08.325Z,1046.92
2017-02-08T04:19:08.310Z,1046.97
2017-02-08T04:20:08.291Z,1046.92
2017-02-08T04:21:08.274Z,1046.94
2017-02-08T04:22:08.254Z,1046.95
2017-02-08T04:23:08.238Z,1046.92
2017-02-08T04:24:08.220Z,1046.83
2017-02-08T04:25:08.201Z,1046.83
2017-02-08T04:26:08.186Z,1046.89
2017-02-08T04:27:08.169Z,1046.91
2017-02-08T04:28:08.151Z,1046.91
2017-02-08T04:29:08.134Z,1046.92
2017-02-08T04:30:08.116Z,1046.87
2017-02-08T04:31:08.099Z,1046.92
2017-02-08T04:32:08.082Z,1046.96
2017-02-08T04:33:08.066Z,1046.95
2017-02-08T04:34:08.049Z,1046.89
2017-02-08T04:35:08.032Z,1046.85
2017-02-08T04:36:08.013Z,1046.91
2017-02-08T04:37:08.005Z,1046.9
2017-02-08T04:38:07.979Z,1046.9
2017-02-08T04:39:07.963Z,1046.87
2017-02-08T04:40:07.943Z,1046.95
2017-02-08T04:41:07.927Z,1046.89
2017-02-08T04:42:07.911Z,1046.88
2017-02-08T04:43:07.893Z,1046.89
2017-02-08T04:44:07.876Z,1046.88
2017-02-08T04:45:07.859Z,1046.91
2017-02-08T04:46:07.841Z,1046.86
2017-02-08T04:47:07.824Z,1046.82
2017-02-08T04:48:07.807Z,1046.91
2017-02-08T04:49:07.788Z,1046.93
2017-02-08T04:50:07.771Z,1046.99
2017-02-08T04:51:07.754Z,1047.06
2017-02-08T04:52:07.736Z,1047.03
2017-02-08T04:53:07.719Z,1047.07
2017-02-08T04:54:07.701Z,1047.08
2017-02-08T04:55:07.685Z,1047.13
2017-02-08T04:56:07.669Z,1047.12
2017-02-08T04:57:07.651Z,1047.17
2017-02-08T04:58:07.632Z,1047.26
2017-02-08T04:59:07.617Z,1047.24
2017-02-08T05:00:07.598Z,1047.29
2017-02-08T05:01:07.581Z,1047.29
2017-02-08T05:02:07.564Z,1047.32
2017-02-08T05:03:07.547Z,1047.29
2017-02-08T05:04:07.530Z,1047.26
2017-02-08T05:05:07.512Z,1047.26
2017-02-08T05:06:07.495Z,1047.28
2017-02-08T05:07:07.476Z,1047.23
2017-02-08T05:08:07.461Z,1047.23
2017-02-08T05:09:07.443Z,1047.19
2017-02-08T05:10:07.425Z,1047.26
2017-02-08T05:11:07.409Z,1047.3
2017-02-08T05:12:07.392Z,1047.37
2017-02-08T05:13:07.372Z,1047.34
2017-02-08T05:14:07.357Z,1047.29
2017-02-08T05:15:07.340Z,1047.4
2017-02-08T05:16:07.322Z,1047.4
2017-02-08T05:17:07.304Z,1047.39
2017-02-08T05:18:07.287Z,1047.43
2017-02-08T05:19:07.270Z,1047.38
2017-02-08T05:20:07.252Z,1047.42
2017-02-08T05:21:07.235Z,1047.37
2017-02-08T05:22:07.218Z,1047.42
2017-02-08T05:23:07.201Z,1047.34
2017-02-08T05:24:07.183Z,1047.37
2017-02-08T05:25:07.167Z,1047.3
2017-02-08T05:26:07.149Z,1047.3
2017-02-08T05:27:07.130Z,1047.27
2017-02-08T05:28:07.113Z,1047.33
2017-02-08T05:29:07.097Z,1047.33
2017-02-08T05:30:07.080Z,1047.32
2017-02-08T05:31:07.062Z,1047.31
2017-02-08T05:32:07.044Z,1047.31
2017-02-08T05:33:07.028Z,1047.31
2017-02-08T05:34:07.009Z,1047.36
2017-02-08T05:35:06.993Z,1047.43
2017-02-08T05:36:06.976Z,1047.38
2017-02-08T05:37:06.958Z,1047.47
2017-02-08T05:38:06.940Z,1047.49
2017-02-08T05:39:06.924Z,1047.44
2017-02-08T05:40:06.906Z,1047.49
2017-02-08T05:41:06.889Z,1047.46
2017-02-08T05:42:06.871Z,1047.47
2017-02-08T05:43:06.855Z,1047.49
2017-02-08T05:44:06.837Z,1047.46
2017-02-08T05:45:06.820Z,1047.48
2017-02-08T05:46:06.802Z,1047.56
2017-02-08T05:47:06.785Z,1047.48
2017-02-08T05:48:06.767Z,1047.55
2017-02-08T05:49:06.749Z,1047.55
2017-02-08T05:50:06.733Z,1047.57
2017-02-08T05:51:06.716Z,1047.63
2017-02-08T05:52:06.700Z,1047.63
2017-02-08T05:53:06.680Z,1047.71
2017-02-08T05:54:06.664Z,1047.74
2017-02-08T05:55:06.646Z,1047.8
2017-02-08T05:56:06.630Z,1047.81
2017-02-08T05:57:06.612Z,1047.78
2017-02-08T05:58:06.595Z,1047.86
2017-02-08T05:59:06.577Z,1047.85
2017-02-08T06:00:06.559Z,1047.82
2017-02-08T06:01:06.542Z,1047.83
2017-02-08T06:02:06.525Z,1047.81
2017-02-08T06:03:06.507Z,1047.76
2017-02-08T06:04:06.489Z,1047.79
2017-02-08T06:05:06.472Z,1047.83
2017-02-08T06:06:06.455Z,1047.85
2017-02-08T06:07:06.438Z,1047.81
2017-02-08T06:08:06.421Z,1047.8
2017-02-08T06:09:06.403Z,1047.85
2017-02-08T06:10:06.385Z,1047.87
2017-02-08T06:11:06.368Z,1047.87
2017-02-08T06:12:06.350Z,1047.87
2017-02-08T06:13:06.334Z,1047.83
2017-02-08T06:14:06.315Z,1047.89
2017-02-08T06:15:06.296Z,1047.95
2017-02-08T06:16:06.281Z,1047.9
2017-02-08T06:17:06.264Z,1047.96
2017-02-08T06:18:06.245Z,1047.97
2017-02-08T06:19:06.228Z,1047.98
2017-02-08T06:20:06.211Z,1047.95
2017-02-08T06:21:06.194Z,1048.06
2017-02-08T06:22:06.176Z,1048.11
2017-02-08T06:23:06.158Z,1048.12
2017-02-08T06:24:06.141Z,1048.18
2017-02-08T06:25:06.124Z,1048.2
2017-02-08T06:26:06.104Z,1048.22
2017-02-08T06:27:06.088Z,1048.26
2017-02-08T06:28:06.071Z,1048.22
2017-02-08T06:29:06.053Z,1048.23
2017-02-08T06:30:06.039Z,1048.31
2017-02-08T06:31:06.018Z,1048.35
2017-02-08T06:32:06.001Z,1048.46
2017-02-08T06:33:05.982Z,1048.41
2017-02-08T06:34:05.965Z,1048.43
2017-02-08T06:35:05.948Z,1048.57
2017-02-08T06:36:05.931Z,1048.57
2017-02-08T06:37:05.912Z,1048.5
2017-02-08T06:38:05.900Z,1048.57
2017-02-08T06:39:05.878Z,1048.53
2017-02-08T06:40:05.857Z,1048.58
2017-02-08T06:41:05.842Z,1048.56
2017-02-08T06:42:05.825Z,1048.6
2017-02-08T06:43:05.807Z,1048.62
2017-02-08T06:44:05.789Z,1048.55
2017-02-08T06:45:05.770Z,1048.73
2017-02-08T06:46:05.753Z,1048.62
2017-02-08T06:47:05.736Z,1048.64
2017-02-08T06:48:05.717Z,1048.61
2017-02-08T06:49:05.701Z,1048.58
2017-02-08T06:50:05.684Z,1048.6
2017-02-08T06:51:05.664Z,1048.62
2017-02-08T06:52:05.647Z,1048.62
2017-02-08T06:53:05.630Z,1048.62
2017-02-08T06:54:05.612Z,1048.67
2017-02-08T06:55:05.595Z,1048.65
2017-02-08T06:56:05.576Z,1048.58
2017-02-08T06:57:05.559Z,1048.58
2017-02-08T06:58:05.541Z,1048.52
2017-02-08T06:59:05.523Z,1048.5
2017-02-08T07:00:05.505Z,1048.51
2017-02-08T07:01:05.488Z,1048.53
2017-02-08T07:02:05.469Z,1048.51
2017-02-08T07:03:05.452Z,1048.5
2017-02-08T07:04:05.434Z,1048.4
2017-02-08T07:05:05.417Z,1048.44
2017-02-08T07:06:05.399Z,1048.42
2017-02-08T07:07:05.382Z,1048.4
2017-02-08T07:08:05.365Z,1048.43
2017-02-08T07:09:05.347Z,1048.44
2017-02-08T07:10:05.328Z,1048.39
2017-02-08T07:11:05.311Z,1048.4
2017-02-08T07:12:05.294Z,1048.33
2017-02-08T07:13:05.275Z,1048.37
2017-02-08T07:14:05.257Z,1048.34
2017-02-08T07:15:05.240Z,1048.39
2017-02-08T07:16:05.222Z,1048.36
2017-02-08T07:17:05.204Z,1048.43
2017-02-08T07:18:05.191Z,1048.4
2017-02-08T07:19:05.171Z,1048.39
2017-02-08T07:20:05.152Z,1048.41
2017-02-08T07:21:05.134Z,1048.41
2017-02-08T07:22:05.117Z,1048.34
2017-02-08T07:23:05.099Z,1048.34
2017-02-08T07:24:05.082Z,1048.42
2017-02-08T07:25:05.063Z,1048.36
2017-02-08T07:26:05.045Z,1048.37
2017-02-08T07:27:05.029Z,1048.38
2017-02-08T07:28:05.010Z,1048.38
2017-02-08T07:29:04.993Z,1048.38
2017-02-08T07:30:04.977Z,1048.5
2017-02-08T07:31:04.959Z,1048.39
2017-02-08T07:32:04.939Z,1048.46
2017-02-08T07:33:04.923Z,1048.49
2017-02-08T07:34:04.906Z,1048.47
2017-02-08T07:35:04.888Z,1048.5
2017-02-08T07:36:04.870Z,1048.47
2017-02-08T07:37:04.853Z,1048.43
2017-02-08T07:38:04.836Z,1048.41
2017-02-08T07:39:04.817Z,1048.45
2017-02-08T07:40:04.801Z,1048.4
2017-02-08T07:41:04.784Z,1048.37
2017-02-08T07:42:04.769Z,1048.34
2017-02-08T07:43:04.749Z,1048.41
2017-02-08T07:44:04.732Z,1048.38
2017-02-08T07:45:04.715Z,1048.37
2017-02-08T07:46:04.697Z,1048.37
2017-02-08T07:47:04.679Z,1048.37
2017-02-08T07:48:04.663Z,1048.4
2017-02-08T07:49:04.645Z,1048.34
2017-02-08T07:50:04.629Z,1048.29
2017-02-08T07:51:04.610Z,1048.27
2017-02-08T07:52:04.593Z,1048.27
2017-02-08T07:53:04.575Z,1048.26
2017-02-08T07:54:04.558Z,1048.28
2017-02-08T07:55:04.541Z,1048.28
2017-02-08T07:56:04.524Z,1048.27
2017-02-08T07:57:04.506Z,1048.26
2017-02-08T07:58:04.489Z,1048.24
2017-02-08T07:59:04.471Z,1048.2
2017-02-08T08:00:04.454Z,1048.24
2017-02-08T08:01:04.436Z,1048.16
2017-02-08T08:02:04.420Z,1048.14
2017-02-08T08:03:04.403Z,1048.17
2017-02-08T08:04:04.384Z,1048.22
2017-02-08T08:05:04.368Z,1048.16
2017-02-08T08:06:04.350Z,1048.17
2017-02-08T08:07:04.334Z,1048.16
2017-02-08T08:08:04.315Z,1048.17
2017-02-08T08:09:04.299Z,1048.18
2017-02-08T08:10:04.282Z,1048.2
2017-02-08T08:11:04.265Z,1048.21
2017-02-08T08:12:04.246Z,1048.2
2017-02-08T08:13:04.230Z,1048.19
2017-02-08T08:14:04.212Z,1048.22
2017-02-08T08:15:04.195Z,1048.27
2017-02-08T08:16:04.178Z,1048.23
2017-02-08T08:17:04.161Z,1048.26
2017-02-08T08:18:04.144Z,1048.22
2017-02-08T08:19:04.126Z,1048.17
2017-02-08T08:20:04.109Z,1048.11
2017-02-08T08:21:04.092Z,1048.17
2017-02-08T08:22:04.075Z,1048.15
2017-02-08T08:23:04.056Z,1048.14
2017-02-08T08:24:04.040Z,1048.17
2017-02-08T08:25:04.023Z,1048.16
2017-02-08T08:26:04.005Z,1048.12
2017-02-08T08:27:03.989Z,1048.07
2017-02-08T08:28:03.972Z,1048.03
2017-02-08T08:29:03.955Z,1048.02
2017-02-08T08:30:03.938Z,1047.96
2017-02-08T08:31:03.920Z,1047.92
2017-02-08T08:32:03.903Z,1047.88
2017-02-08T08:33:03.887Z,1047.95
2017-02-08T08:34:03.869Z,1047.95
2017-02-08T08:35:03.851Z,1047.97
2017-02-08T08:36:03.837Z,1047.99
2017-02-08T08:37:03.820Z,1048.02
2017-02-08T08:38:03.801Z,1047.97
2017-02-08T08:39:03.785Z,1048.02
2017-02-08T08:40:03.768Z,1048.03
2017-02-08T08:41:03.750Z,1048.06
2017-02-08T08:42:03.734Z,1048.1
2017-02-08T08:43:03.717Z,1048.07
2017-02-08T08:44:03.700Z,1048.14
2017-02-08T08:45:03.685Z,1048.29
2017-02-08T08:46:03.666Z,1048.16
2017-02-08T08:47:03.649Z,1048.1
2017-02-08T08:48:03.634Z,1048.07
2017-02-08T08:49:03.615Z,1048.07
2017-02-08T08:50:03.600Z,1048.04
2017-02-08T08:51:03.583Z,1048.02
2017-02-08T08:52:03.565Z,1048.03
2017-02-08T08:53:03.548Z,1047.95
2017-02-08T08:54:03.533Z,1047.92
2017-02-08T08:55:03.515Z,1047.98
2017-02-08T08:56:03.498Z,1048.03
2017-02-08T08:57:03.481Z,1048.07
2017-02-08T08:58:03.465Z,1048.08
2017-02-08T08:59:03.447Z,1048.02
2017-02-08T09:00:03.431Z,1048.03
2017-02-08T09:01:03.414Z,1048.11
2017-02-08T09:02:03.398Z,1048.12
2017-02-08T09:03:03.381Z,1048.07
2017-02-08T09:04:03.364Z,1048.14
2017-02-08T09:05:03.346Z,1048.2
2017-02-08T09:06:03.331Z,1048.18
2017-02-08T09:07:03.313Z,1048.17
2017-02-08T09:08:03.296Z,1048.13
2017-02-08T09:09:03.279Z,1048.01
2017-02-08T09:10:03.262Z,1047.99
2017-02-08T09:11:03.246Z,1047.92
2017-02-08T09:12:03.229Z,1047.92
2017-02-08T09:13:03.213Z,1047.84
2017-02-08T09:14:03.196Z,1047.82
2017-02-08T09:15:03.178Z,1047.77
2017-02-08T09:16:03.161Z,1047.78
2017-02-08T09:17:03.145Z,1047.77
2017-02-08T09:18:03.131Z,1047.69
2017-02-08T09:19:03.113Z,1047.59
2017-02-08T09:20:03.095Z,1047.46
2017-02-08T09:21:03.079Z,1047.37
2017-02-08T09:22:03.062Z,1047.24
2017-02-08T09:23:03.047Z,1047.2
2017-02-08T09:24:03.030Z,1047.23
2017-02-08T09:25:03.013Z,1047.27
2017-02-08T09:26:02.997Z,1047.25
2017-02-08T09:27:02.981Z,1047.29
2017-02-08T09:28:02.963Z,1047.17
2017-02-08T09:29:02.948Z,1047.15
2017-02-08T09:30:02.931Z,1047.06
2017-02-08T09:31:02.915Z,1047.13
2017-02-08T09:32:02.901Z,1047.14
2017-02-08T09:33:02.882Z,1047.11
2017-02-08T09:34:02.867Z,1047.13
2017-02-08T09:35:02.851Z,1047.16
2017-02-08T09:36:02.834Z,1047.14
2017-02-08T09:37:02.818Z,1047.12
2017-02-08T09:38:02.802Z,1047.12
2017-02-08T09:39:02.785Z,1047.08
2017-02-08T09:40:02.769Z,1046.98
2017-02-08T09:41:02.754Z,1046.91
2017-02-08T09:42:02.738Z,1046.78
2017-02-08T09:43:02.721Z,1046.74
2017-02-08T09:44:02.706Z,1046.69
2017-02-08T09:45:02.690Z,1046.73
2017-02-08T09:46:02.674Z,1046.74
2017-02-08T09:47:02.658Z,1046.76
2017-02-08T09:48:02.642Z,1046.76
2017-02-08T09:49:02.627Z,1046.8
2017-02-08T09:50:02.612Z,1046.81
2017-02-08T09:51:02.595Z,1046.69
2017-02-08T09:52:02.579Z,1046.69
2017-02-08T09:53:02.565Z,1046.56
2017-02-08T09:54:02.546Z,1046.51
2017-02-08T09:55:02.532Z,1046.55
2017-02-08T09:56:02.516Z,1046.59
2017-02-08T09:57:02.501Z,1046.77
2017-02-08T09:58:02.485Z,1046.88
2017-02-08T09:59:02.469Z,1047.01
2017-02-08T10:00:02.455Z,1047.12
2017-02-08T10:01:02.439Z,1047.18
2017-02-08T10:02:02.422Z,1047.15
2017-02-08T10:03:02.407Z,1047.25
2017-02-08T10:04:02.392Z,1047.21
2017-02-08T10:05:02.375Z,1047.17
2017-02-08T10:06:02.360Z,1047.12
2017-02-08T10:07:02.345Z,1047.14
2017-02-08T10:08:02.329Z,1047.11
2017-02-08T10:09:02.313Z,1047.08
2017-02-08T10:10:02.300Z,1047.11
2017-02-08T10:11:02.286Z,1047.2
2017-02-08T10:12:02.266Z,1047.21
2017-02-08T10:13:02.250Z,1047.19
2017-02-08T10:14:02.235Z,1047.1
2017-02-08T10:15:02.220Z,1047.08
2017-02-08T10:16:02.203Z,1047.05
2017-02-08T10:17:02.188Z,1047
2017-02-08T10:18:02.173Z,1046.91
2017-02-08T10:19:02.158Z,1046.72
2017-02-08T10:20:02.142Z,1046.53
2017-02-08T10:21:02.126Z,1046.48
2017-02-08T10:22:02.111Z,1046.49
2017-02-08T10:23:02.096Z,1046.49
2017-02-08T10:24:02.080Z,1046.56
2017-02-08T10:25:02.064Z,1046.63
2017-02-08T10:26:02.051Z,1046.57
2017-02-08T10:27:02.033Z,1046.54
2017-02-08T10:28:02.020Z,1046.47
2017-02-08T10:29:02.003Z,1046.42
2017-02-08T10:30:01.989Z,1046.35
2017-02-08T10:31:01.972Z,1046.26
2017-02-08T10:32:01.958Z,1046.21
2017-02-08T10:33:01.943Z,1046.16
2017-02-08T10:34:01.929Z,1046.2
2017-02-08T10:35:01.913Z,1046.14
2017-02-08T10:36:01.898Z,1046.15
2017-02-08T10:37:01.883Z,1046.17
2017-02-08T10:38:01.870Z,1046.13
2017-02-08T10:39:01.853Z,1046.21
2017-02-08T10:40:01.840Z,1046.32
2017-02-08T10:41:01.824Z,1046.32
2017-02-08T10:42:01.810Z,1046.25
2017-02-08T10:43:01.794Z,1046.22
2017-02-08T10:44:01.779Z,1046.06
2017-02-08T10:45:01.764Z,1045.97
2017-02-08T10:46:01.751Z,1045.8
2017-02-08T10:47:01.734Z,1045.74
2017-02-08T10:48:01.719Z,1045.66
2017-02-08T10:49:01.707Z,1045.54
2017-02-08T10:50:01.691Z,1045.47
2017-02-08T10:51:01.677Z,1045.44
2017-02-08T10:52:01.666Z,1045.41
2017-02-08T10:53:01.649Z,1045.37
2017-02-08T10:54:01.638Z,1045.33
2017-02-08T10:55:01.620Z,1045.28
2017-02-08T10:56:01.605Z,1045.19
2017-02-08T10:57:01.591Z,1045.18
2017-02-08T10:58:01.578Z,1045.1
2017-02-08T10:59:01.564Z,1045.06
2017-02-08T11:00:01.550Z,1045.01
2017-02-08T11:01:01.535Z,1044.91
2017-02-08T11:02:01.521Z,1044.95
2017-02-08T11:03:01.507Z,1044.94
2017-02-08T11:04:01.493Z,1045.04
2017-02-08T11:05:01.480Z,1045.08
2017-02-08T11:06:01.466Z,1045.08
2017-02-08T11:07:01.451Z,1045.07
2017-02-08T11:08:01.438Z,1045.04
2017-02-08T11:09:01.424Z,1045.18
2017-02-08T11:10:01.411Z,1045.24
2017-02-08T11:11:01.398Z,1045.29
2017-02-08T11:12:01.382Z,1045.29
2017-02-08T11:13:01.373Z,1045.35
2017-02-08T11:14:01.353Z,1045.45
2017-02-08T11:15:01.342Z,1045.47
2017-02-08T11:16:01.327Z,1045.54
2017-02-08T11:17:01.314Z,1045.56
2017-02-08T11:18:01.299Z,1045.52
2017-02-08T11:19:01.286Z,1045.5
2017-02-08T11:20:01.272Z,1045.46
2017-02-08T11:21:01.261Z,1045.43
2017-02-08T11:22:01.243Z,1045.37
2017-02-08T11:23:01.231Z,1045.28
2017-02-08T11:24:01.216Z,1045.22
2017-02-08T11:25:01.200Z,1045.16
2017-02-08T11:26:01.187Z,1045.17
2017-02-08T11:27:01.173Z,1045.16
2017-02-08T11:28:01.159Z,1045.12
2017-02-08T11:29:01.146Z,1045.16
2017-02-08T11:30:01.131Z,1045.29
2017-02-08T11:31:01.117Z,1045.27
2017-02-08T11:32:01.103Z,1045.35
2017-02-08T11:33:01.089Z,1045.37
2017-02-08T11:34:01.075Z,1045.35
2017-02-08T11:35:01.063Z,1045.42
2017-02-08T11:36:01.048Z,1045.53
2017-02-08T11:37:01.033Z,1045.51
2017-02-08T11:38:01.020Z,1045.54
2017-02-08T11:39:01.006Z,1045.57
2017-02-08T11:40:00.993Z,1045.55
2017-02-08T11:41:00.977Z,1045.61
2017-02-08T11:42:00.964Z,1045.65
2017-02-08T11:43:00.949Z,1045.65
2017-02-08T11:44:00.935Z,1045.66
2017-02-08T11:45:00.921Z,1045.8
2017-02-08T11:46:00.907Z,1045.89
2017-02-08T11:47:00.891Z,1045.92
2017-02-08T11:48:00.877Z,1045.98
2017-02-08T11:49:00.863Z,1046.07
2017-02-08T11:50:00.850Z,1046.03
2017-02-08T11:51:00.835Z,1046.1
2017-02-08T11:52:00.821Z,1046.15
2017-02-08T11:53:00.808Z,1046.05
2017-02-08T11:54:00.793Z,1045.98
2017-02-08T11:55:00.780Z,1045.9
2017-02-08T11:56:00.764Z,1045.87
2017-02-08T11:57:00.750Z,1045.77
2017-02-08T11:58:00.735Z,1045.7
2017-02-08T11:59:00.721Z,1045.56
2017-02-08T12:00:00.706Z,1045.52
2017-02-08T12:01:00.695Z,1045.48
2017-02-08T12:02:00.677Z,1045.46
2017-02-08T12:03:00.664Z,1045.43
2017-02-08T12:04:00.649Z,1045.44
2017-02-08T12:05:00.635Z,1045.48
2017-02-08T12:06:00.623Z,1045.5
2017-02-08T12:07:00.606Z,1045.45
2017-02-08T12:08:00.592Z,1045.56